sensor_id;sensor_type;location;lat;lon;timestamp;P1;durP1;ratioP1;P2;durP2;ratioP2
20711;SDS011;10517;50.742;4.224;2023-07-20T00:01:27;8.85;;;3.83;;
20711;SDS011;10517;50.742;4.224;2023-07-20T00:03:53;6.53;;;3.92;;
20711;SDS011;10517;50.742;4.224;2023-07-20T00:06:24;7.95;;;3.88;;
20711;SDS011;10517;50.742;4.224;2023-07-20T00:08:52;7.03;;;3.85;;
20711;SDS011;10517;50.742;4.224;2023-07-20T00:11:18;14.07;;;4.07;;
20711;SDS011;10517;50.742;4.224;2023-07-20T00:13:44;5.57;;;3.75;;
20711;SDS011;10517;50.742;4.224;2023-07-20T00:16:10;5.55;;;4.57;;
20711;SDS011;10517;50.742;4.224;2023-07-20T00:18:35;4.28;;;3.88;;
20711;SDS011;10517;50.742;4.224;2023-07-20T00:21:01;4.85;;;4.45;;
20711;SDS011;10517;50.742;4.224;2023-07-20T00:23:27;6.68;;;3.58;;
20711;SDS011;10517;50.742;4.224;2023-07-20T00:25:52;9.32;;;4.35;;
20711;SDS011;10517;50.742;4.224;2023-07-20T00:28:18;4.82;;;3.47;;
20711;SDS011;10517;50.742;4.224;2023-07-20T00:30:44;6.15;;;3.22;;
20711;SDS011;10517;50.742;4.224;2023-07-20T00:33:10;9.48;;;3.80;;
20711;SDS011;10517;50.742;4.224;2023-07-20T00:35:36;5.50;;;3.40;;
20711;SDS011;10517;50.742;4.224;2023-07-20T00:38:03;3.97;;;3.67;;
20711;SDS011;10517;50.742;4.224;2023-07-20T00:40:29;5.80;;;3.85;;
20711;SDS011;10517;50.742;4.224;2023-07-20T00:43:00;11.02;;;4.60;;
20711;SDS011;10517;50.742;4.224;2023-07-20T00:45:26;4.57;;;3.40;;
20711;SDS011;10517;50.742;4.224;2023-07-20T00:47:51;8.18;;;2.03;;
20711;SDS011;10517;50.742;4.224;2023-07-20T00:50:17;2.67;;;2.22;;
20711;SDS011;10517;50.742;4.224;2023-07-20T00:52:43;8.95;;;2.13;;
20711;SDS011;10517;50.742;4.224;2023-07-20T00:55:09;2.63;;;2.13;;
20711;SDS011;10517;50.742;4.224;2023-07-20T00:57:35;10.63;;;2.10;;
20711;SDS011;10517;50.742;4.224;2023-07-20T01:00:00;5.68;;;2.60;;
20711;SDS011;10517;50.742;4.224;2023-07-20T01:02:26;3.85;;;2.08;;
20711;SDS011;10517;50.742;4.224;2023-07-20T01:04:52;8.13;;;2.88;;
20711;SDS011;10517;50.742;4.224;2023-07-20T01:09:59;7.82;;;2.53;;
20711;SDS011;10517;50.742;4.224;2023-07-20T01:15:06;17.65;;;2.30;;
20711;SDS011;10517;50.742;4.224;2023-07-20T01:17:33;17.40;;;2.50;;
20711;SDS011;10517;50.742;4.224;2023-07-20T01:19:59;6.07;;;2.70;;
20711;SDS011;10517;50.742;4.224;2023-07-20T01:28:58;10.18;;;2.30;;
20711;SDS011;10517;50.742;4.224;2023-07-20T01:31:40;8.13;;;2.50;;
20711;SDS011;10517;50.742;4.224;2023-07-20T01:34:07;7.60;;;2.30;;
20711;SDS011;10517;50.742;4.224;2023-07-20T01:36:37;18.30;;;2.63;;
20711;SDS011;10517;50.742;4.224;2023-07-20T01:39:03;16.13;;;2.97;;
20711;SDS011;10517;50.742;4.224;2023-07-20T01:41:30;5.32;;;2.38;;
20711;SDS011;10517;50.742;4.224;2023-07-20T01:43:59;20.17;;;2.97;;
20711;SDS011;10517;50.742;4.224;2023-07-20T01:46:25;14.32;;;2.83;;
20711;SDS011;10517;50.742;4.224;2023-07-20T01:48:50;6.63;;;2.38;;
20711;SDS011;10517;50.742;4.224;2023-07-20T01:51:17;7.88;;;3.22;;
20711;SDS011;10517;50.742;4.224;2023-07-20T01:53:43;14.57;;;2.75;;
20711;SDS011;10517;50.742;4.224;2023-07-20T01:56:08;5.68;;;2.58;;
20711;SDS011;10517;50.742;4.224;2023-07-20T01:58:34;10.85;;;2.95;;
20711;SDS011;10517;50.742;4.224;2023-07-20T02:01:00;18.85;;;3.47;;
20711;SDS011;10517;50.742;4.224;2023-07-20T02:03:26;16.55;;;3.10;;
20711;SDS011;10517;50.742;4.224;2023-07-20T02:05:52;12.27;;;3.60;;
20711;SDS011;10517;50.742;4.224;2023-07-20T02:08:18;15.77;;;2.90;;
20711;SDS011;10517;50.742;4.224;2023-07-20T02:10:47;13.10;;;2.70;;
20711;SDS011;10517;50.742;4.224;2023-07-20T02:13:12;14.77;;;3.55;;
20711;SDS011;10517;50.742;4.224;2023-07-20T02:15:38;13.02;;;3.28;;
20711;SDS011;10517;50.742;4.224;2023-07-20T02:18:04;15.23;;;3.42;;
20711;SDS011;10517;50.742;4.224;2023-07-20T02:20:29;14.43;;;3.30;;
20711;SDS011;10517;50.742;4.224;2023-07-20T02:22:55;10.52;;;2.75;;
20711;SDS011;10517;50.742;4.224;2023-07-20T02:25:21;9.57;;;3.28;;
20711;SDS011;10517;50.742;4.224;2023-07-20T02:27:46;14.07;;;3.08;;
20711;SDS011;10517;50.742;4.224;2023-07-20T02:30:12;16.40;;;2.88;;
20711;SDS011;10517;50.742;4.224;2023-07-20T02:32:38;9.07;;;3.08;;
20711;SDS011;10517;50.742;4.224;2023-07-20T02:35:04;14.20;;;3.58;;
20711;SDS011;10517;50.742;4.224;2023-07-20T02:37:31;5.72;;;2.75;;
20711;SDS011;10517;50.742;4.224;2023-07-20T02:39:57;6.65;;;2.88;;
20711;SDS011;10517;50.742;4.224;2023-07-20T02:42:22;8.27;;;3.50;;
20711;SDS011;10517;50.742;4.224;2023-07-20T02:44:50;5.95;;;3.05;;
20711;SDS011;10517;50.742;4.224;2023-07-20T02:47:16;11.82;;;3.00;;
20711;SDS011;10517;50.742;4.224;2023-07-20T02:49:42;11.35;;;4.18;;
20711;SDS011;10517;50.742;4.224;2023-07-20T02:52:08;9.52;;;4.45;;
20711;SDS011;10517;50.742;4.224;2023-07-20T02:54:34;10.98;;;4.20;;
20711;SDS011;10517;50.742;4.224;2023-07-20T02:56:59;12.77;;;3.42;;
20711;SDS011;10517;50.742;4.224;2023-07-20T02:59:26;12.07;;;3.40;;
20711;SDS011;10517;50.742;4.224;2023-07-20T03:01:51;6.47;;;2.90;;
20711;SDS011;10517;50.742;4.224;2023-07-20T03:04:17;10.75;;;4.05;;
20711;SDS011;10517;50.742;4.224;2023-07-20T03:06:43;12.27;;;3.28;;
20711;SDS011;10517;50.742;4.224;2023-07-20T03:09:09;9.68;;;3.70;;
20711;SDS011;10517;50.742;4.224;2023-07-20T03:11:34;13.02;;;3.58;;
20711;SDS011;10517;50.742;4.224;2023-07-20T03:14:00;4.55;;;3.38;;
20711;SDS011;10517;50.742;4.224;2023-07-20T03:16:25;12.15;;;4.80;;
20711;SDS011;10517;50.742;4.224;2023-07-20T03:18:51;14.52;;;4.97;;
20711;SDS011;10517;50.742;4.224;2023-07-20T03:21:17;10.45;;;3.90;;
20711;SDS011;10517;50.742;4.224;2023-07-20T03:23:43;16.48;;;4.78;;
20711;SDS011;10517;50.742;4.224;2023-07-20T03:26:08;8.10;;;4.38;;
20711;SDS011;10517;50.742;4.224;2023-07-20T03:28:35;9.02;;;3.97;;
20711;SDS011;10517;50.742;4.224;2023-07-20T03:31:01;17.05;;;5.25;;
20711;SDS011;10517;50.742;4.224;2023-07-20T03:33:27;27.63;;;5.40;;
20711;SDS011;10517;50.742;4.224;2023-07-20T03:35:54;20.17;;;5.22;;
20711;SDS011;10517;50.742;4.224;2023-07-20T03:38:23;14.02;;;4.00;;
20711;SDS011;10517;50.742;4.224;2023-07-20T03:43:19;14.10;;;4.50;;
20711;SDS011;10517;50.742;4.224;2023-07-20T03:45:45;13.30;;;4.30;;
20711;SDS011;10517;50.742;4.224;2023-07-20T03:48:13;14.80;;;5.93;;
20711;SDS011;10517;50.742;4.224;2023-07-20T03:50:40;11.43;;;5.80;;
20711;SDS011;10517;50.742;4.224;2023-07-20T03:53:05;12.63;;;4.53;;
20711;SDS011;10517;50.742;4.224;2023-07-20T03:55:31;17.80;;;5.13;;
20711;SDS011;10517;50.742;4.224;2023-07-20T03:57:56;15.75;;;5.47;;
20711;SDS011;10517;50.742;4.224;2023-07-20T04:00:22;18.20;;;5.70;;
20711;SDS011;10517;50.742;4.224;2023-07-20T04:02:48;13.90;;;5.50;;
20711;SDS011;10517;50.742;4.224;2023-07-20T04:05:14;18.38;;;6.13;;
20711;SDS011;10517;50.742;4.224;2023-07-20T04:07:39;10.88;;;4.90;;
20711;SDS011;10517;50.742;4.224;2023-07-20T04:10:05;19.17;;;6.90;;
20711;SDS011;10517;50.742;4.224;2023-07-20T04:12:31;7.68;;;4.90;;
20711;SDS011;10517;50.742;4.224;2023-07-20T04:14:57;15.77;;;5.13;;
20711;SDS011;10517;50.742;4.224;2023-07-20T04:17:22;15.82;;;6.18;;
20711;SDS011;10517;50.742;4.224;2023-07-20T04:19:48;12.20;;;5.25;;
20711;SDS011;10517;50.742;4.224;2023-07-20T04:22:13;13.38;;;5.35;;
20711;SDS011;10517;50.742;4.224;2023-07-20T04:24:41;19.98;;;6.80;;
20711;SDS011;10517;50.742;4.224;2023-07-20T04:27:07;12.75;;;5.32;;
20711;SDS011;10517;50.742;4.224;2023-07-20T04:29:33;19.05;;;6.00;;
20711;SDS011;10517;50.742;4.224;2023-07-20T04:31:58;17.15;;;6.40;;
20711;SDS011;10517;50.742;4.224;2023-07-20T04:34:24;16.40;;;5.93;;
20711;SDS011;10517;50.742;4.224;2023-07-20T04:36:49;13.30;;;5.50;;
20711;SDS011;10517;50.742;4.224;2023-07-20T04:39:15;18.70;;;6.70;;
20711;SDS011;10517;50.742;4.224;2023-07-20T04:41:41;16.00;;;5.57;;
20711;SDS011;10517;50.742;4.224;2023-07-20T04:44:06;16.63;;;6.72;;
20711;SDS011;10517;50.742;4.224;2023-07-20T04:46:32;27.63;;;6.78;;
20711;SDS011;10517;50.742;4.224;2023-07-20T04:48:57;16.60;;;6.75;;
20711;SDS011;10517;50.742;4.224;2023-07-20T04:51:23;20.60;;;6.03;;
20711;SDS011;10517;50.742;4.224;2023-07-20T04:53:49;17.63;;;6.18;;
20711;SDS011;10517;50.742;4.224;2023-07-20T04:56:14;12.82;;;6.50;;
20711;SDS011;10517;50.742;4.224;2023-07-20T04:58:40;15.95;;;6.53;;
20711;SDS011;10517;50.742;4.224;2023-07-20T05:01:05;14.25;;;6.10;;
20711;SDS011;10517;50.742;4.224;2023-07-20T05:03:31;18.48;;;6.45;;
20711;SDS011;10517;50.742;4.224;2023-07-20T05:05:57;13.10;;;7.10;;
20711;SDS011;10517;50.742;4.224;2023-07-20T05:08:23;31.80;;;5.93;;
20711;SDS011;10517;50.742;4.224;2023-07-20T05:10:48;15.77;;;5.65;;
20711;SDS011;10517;50.742;4.224;2023-07-20T05:13:14;13.95;;;5.32;;
20711;SDS011;10517;50.742;4.224;2023-07-20T05:15:40;16.23;;;7.28;;
20711;SDS011;10517;50.742;4.224;2023-07-20T05:18:06;19.35;;;8.15;;
20711;SDS011;10517;50.742;4.224;2023-07-20T05:20:31;17.20;;;6.40;;
20711;SDS011;10517;50.742;4.224;2023-07-20T05:22:58;15.45;;;6.68;;
20711;SDS011;10517;50.742;4.224;2023-07-20T05:25:24;9.52;;;6.53;;
20711;SDS011;10517;50.742;4.224;2023-07-20T05:27:51;14.20;;;6.70;;
20711;SDS011;10517;50.742;4.224;2023-07-20T05:30:17;20.38;;;6.47;;
20711;SDS011;10517;50.742;4.224;2023-07-20T05:32:43;18.00;;;7.40;;
20711;SDS011;10517;50.742;4.224;2023-07-20T05:35:12;16.02;;;6.30;;
20711;SDS011;10517;50.742;4.224;2023-07-20T05:37:39;18.08;;;6.45;;
20711;SDS011;10517;50.742;4.224;2023-07-20T05:40:05;16.05;;;6.13;;
20711;SDS011;10517;50.742;4.224;2023-07-20T05:42:32;15.40;;;6.40;;
20711;SDS011;10517;50.742;4.224;2023-07-20T05:44:58;14.88;;;6.35;;
20711;SDS011;10517;50.742;4.224;2023-07-20T05:47:24;10.43;;;5.65;;
20711;SDS011;10517;50.742;4.224;2023-07-20T05:49:49;17.52;;;6.75;;
20711;SDS011;10517;50.742;4.224;2023-07-20T05:52:15;12.65;;;6.40;;
20711;SDS011;10517;50.742;4.224;2023-07-20T05:54:40;14.68;;;6.57;;
20711;SDS011;10517;50.742;4.224;2023-07-20T05:57:06;17.30;;;6.65;;
20711;SDS011;10517;50.742;4.224;2023-07-20T05:59:32;13.18;;;6.05;;
20711;SDS011;10517;50.742;4.224;2023-07-20T06:01:58;9.30;;;6.13;;
20711;SDS011;10517;50.742;4.224;2023-07-20T06:04:24;13.63;;;6.75;;
20711;SDS011;10517;50.742;4.224;2023-07-20T06:06:49;13.48;;;6.97;;
20711;SDS011;10517;50.742;4.224;2023-07-20T06:09:15;15.88;;;6.90;;
20711;SDS011;10517;50.742;4.224;2023-07-20T06:11:40;16.80;;;7.85;;
20711;SDS011;10517;50.742;4.224;2023-07-20T06:14:06;12.23;;;7.50;;
20711;SDS011;10517;50.742;4.224;2023-07-20T06:16:32;12.05;;;7.03;;
20711;SDS011;10517;50.742;4.224;2023-07-20T06:18:59;9.63;;;6.75;;
20711;SDS011;10517;50.742;4.224;2023-07-20T06:21:25;11.02;;;6.35;;
20711;SDS011;10517;50.742;4.224;2023-07-20T06:23:51;16.02;;;6.40;;
20711;SDS011;10517;50.742;4.224;2023-07-20T06:26:16;11.80;;;7.40;;
20711;SDS011;10517;50.742;4.224;2023-07-20T06:28:42;9.68;;;6.60;;
20711;SDS011;10517;50.742;4.224;2023-07-20T06:31:07;13.55;;;6.60;;
20711;SDS011;10517;50.742;4.224;2023-07-20T06:33:33;10.32;;;5.78;;
20711;SDS011;10517;50.742;4.224;2023-07-20T06:35:59;9.68;;;6.38;;
20711;SDS011;10517;50.742;4.224;2023-07-20T06:38:25;10.10;;;6.68;;
20711;SDS011;10517;50.742;4.224;2023-07-20T06:40:51;8.75;;;6.18;;
20711;SDS011;10517;50.742;4.224;2023-07-20T06:43:17;14.07;;;5.82;;
20711;SDS011;10517;50.742;4.224;2023-07-20T06:45:43;10.60;;;5.97;;
20711;SDS011;10517;50.742;4.224;2023-07-20T06:48:09;10.98;;;6.05;;
20711;SDS011;10517;50.742;4.224;2023-07-20T06:50:34;11.23;;;6.65;;
20711;SDS011;10517;50.742;4.224;2023-07-20T06:53:00;11.63;;;6.32;;
20711;SDS011;10517;50.742;4.224;2023-07-20T06:55:29;12.82;;;7.10;;
20711;SDS011;10517;50.742;4.224;2023-07-20T06:57:55;15.23;;;7.50;;
20711;SDS011;10517;50.742;4.224;2023-07-20T07:00:20;19.13;;;8.18;;
20711;SDS011;10517;50.742;4.224;2023-07-20T07:02:46;13.10;;;7.70;;
20711;SDS011;10517;50.742;4.224;2023-07-20T07:05:11;10.95;;;8.13;;
20711;SDS011;10517;50.742;4.224;2023-07-20T07:07:39;13.40;;;7.88;;
20711;SDS011;10517;50.742;4.224;2023-07-20T07:10:05;13.10;;;8.10;;
20711;SDS011;10517;50.742;4.224;2023-07-20T07:12:31;13.40;;;7.55;;
20711;SDS011;10517;50.742;4.224;2023-07-20T07:14:57;9.93;;;7.70;;
20711;SDS011;10517;50.742;4.224;2023-07-20T07:17:23;13.38;;;7.88;;
20711;SDS011;10517;50.742;4.224;2023-07-20T07:19:49;8.65;;;7.57;;
20711;SDS011;10517;50.742;4.224;2023-07-20T07:22:14;12.35;;;7.63;;
20711;SDS011;10517;50.742;4.224;2023-07-20T07:24:40;6.82;;;5.78;;
20711;SDS011;10517;50.742;4.224;2023-07-20T07:27:08;8.73;;;7.20;;
20711;SDS011;10517;50.742;4.224;2023-07-20T07:29:34;10.60;;;7.50;;
20711;SDS011;10517;50.742;4.224;2023-07-20T07:31:59;10.85;;;7.57;;
20711;SDS011;10517;50.742;4.224;2023-07-20T07:34:25;9.38;;;7.43;;
20711;SDS011;10517;50.742;4.224;2023-07-20T07:36:51;12.40;;;7.28;;
20711;SDS011;10517;50.742;4.224;2023-07-20T07:39:17;8.32;;;7.50;;
20711;SDS011;10517;50.742;4.224;2023-07-20T07:41:42;7.70;;;6.90;;
20711;SDS011;10517;50.742;4.224;2023-07-20T07:44:08;9.70;;;7.22;;
20711;SDS011;10517;50.742;4.224;2023-07-20T07:46:33;8.38;;;6.72;;
20711;SDS011;10517;50.742;4.224;2023-07-20T07:48:59;11.90;;;6.47;;
20711;SDS011;10517;50.742;4.224;2023-07-20T07:51:24;7.03;;;6.40;;
20711;SDS011;10517;50.742;4.224;2023-07-20T07:53:52;7.55;;;6.85;;
20711;SDS011;10517;50.742;4.224;2023-07-20T07:56:18;8.85;;;7.07;;
20711;SDS011;10517;50.742;4.224;2023-07-20T07:58:47;7.82;;;7.03;;
20711;SDS011;10517;50.742;4.224;2023-07-20T08:01:17;12.63;;;8.35;;
20711;SDS011;10517;50.742;4.224;2023-07-20T08:03:44;9.82;;;8.38;;
20711;SDS011;10517;50.742;4.224;2023-07-20T08:06:12;9.75;;;7.85;;
20711;SDS011;10517;50.742;4.224;2023-07-20T08:08:38;8.55;;;7.13;;
20711;SDS011;10517;50.742;4.224;2023-07-20T08:11:04;9.63;;;7.30;;
20711;SDS011;10517;50.742;4.224;2023-07-20T08:13:29;10.15;;;7.95;;
20711;SDS011;10517;50.742;4.224;2023-07-20T08:15:56;6.70;;;6.07;;
20711;SDS011;10517;50.742;4.224;2023-07-20T08:18:21;6.45;;;5.82;;
20711;SDS011;10517;50.742;4.224;2023-07-20T08:20:47;6.50;;;5.82;;
20711;SDS011;10517;50.742;4.224;2023-07-20T08:23:14;6.93;;;5.13;;
20711;SDS011;10517;50.742;4.224;2023-07-20T08:25:39;5.97;;;5.25;;
20711;SDS011;10517;50.742;4.224;2023-07-20T08:28:08;7.38;;;5.43;;
20711;SDS011;10517;50.742;4.224;2023-07-20T08:30:48;7.38;;;4.85;;
20711;SDS011;10517;50.742;4.224;2023-07-20T08:33:14;6.45;;;5.03;;
20711;SDS011;10517;50.742;4.224;2023-07-20T08:35:44;7.05;;;5.53;;
20711;SDS011;10517;50.742;4.224;2023-07-20T08:38:11;7.25;;;5.95;;
20711;SDS011;10517;50.742;4.224;2023-07-20T08:40:41;7.95;;;6.50;;
20711;SDS011;10517;50.742;4.224;2023-07-20T08:43:08;5.68;;;5.13;;
20711;SDS011;10517;50.742;4.224;2023-07-20T08:45:36;5.30;;;4.88;;
20711;SDS011;10517;50.742;4.224;2023-07-20T08:48:05;5.57;;;5.07;;
20711;SDS011;10517;50.742;4.224;2023-07-20T08:50:32;5.75;;;5.25;;
20711;SDS011;10517;50.742;4.224;2023-07-20T08:52:59;5.47;;;4.97;;
20711;SDS011;10517;50.742;4.224;2023-07-20T08:55:25;5.03;;;4.68;;
20711;SDS011;10517;50.742;4.224;2023-07-20T08:57:55;6.30;;;5.70;;
20711;SDS011;10517;50.742;4.224;2023-07-20T09:00:22;5.63;;;5.15;;
20711;SDS011;10517;50.742;4.224;2023-07-20T09:02:52;4.68;;;4.28;;
20711;SDS011;10517;50.742;4.224;2023-07-20T09:05:19;5.03;;;4.63;;
20711;SDS011;10517;50.742;4.224;2023-07-20T09:07:46;5.40;;;4.90;;
20711;SDS011;10517;50.742;4.224;2023-07-20T09:10:11;5.70;;;4.80;;
20711;SDS011;10517;50.742;4.224;2023-07-20T09:12:38;4.93;;;4.63;;
20711;SDS011;10517;50.742;4.224;2023-07-20T09:15:05;6.28;;;5.85;;
20711;SDS011;10517;50.742;4.224;2023-07-20T09:17:31;5.85;;;5.32;;
20711;SDS011;10517;50.742;4.224;2023-07-20T09:19:57;6.15;;;5.65;;
20711;SDS011;10517;50.742;4.224;2023-07-20T09:22:29;5.82;;;5.43;;
20711;SDS011;10517;50.742;4.224;2023-07-20T09:24:55;5.97;;;5.47;;
20711;SDS011;10517;50.742;4.224;2023-07-20T09:27:21;6.63;;;6.03;;
20711;SDS011;10517;50.742;4.224;2023-07-20T09:29:50;6.10;;;5.60;;
20711;SDS011;10517;50.742;4.224;2023-07-20T09:32:20;6.43;;;5.90;;
20711;SDS011;10517;50.742;4.224;2023-07-20T09:34:46;6.10;;;5.70;;
20711;SDS011;10517;50.742;4.224;2023-07-20T09:37:12;7.53;;;5.80;;
20711;SDS011;10517;50.742;4.224;2023-07-20T09:39:44;6.65;;;6.25;;
20711;SDS011;10517;50.742;4.224;2023-07-20T09:42:11;6.28;;;5.78;;
20711;SDS011;10517;50.742;4.224;2023-07-20T09:44:40;7.43;;;6.65;;
20711;SDS011;10517;50.742;4.224;2023-07-20T09:47:08;6.55;;;6.05;;
20711;SDS011;10517;50.742;4.224;2023-07-20T09:49:40;6.60;;;6.05;;
20711;SDS011;10517;50.742;4.224;2023-07-20T09:52:09;7.10;;;6.40;;
20711;SDS011;10517;50.742;4.224;2023-07-20T09:54:37;7.30;;;6.70;;
20711;SDS011;10517;50.742;4.224;2023-07-20T09:57:03;6.88;;;6.38;;
20711;SDS011;10517;50.742;4.224;2023-07-20T09:59:33;7.68;;;7.13;;
20711;SDS011;10517;50.742;4.224;2023-07-20T10:01:59;7.70;;;7.15;;
20711;SDS011;10517;50.742;4.224;2023-07-20T10:04:26;6.78;;;6.38;;
20711;SDS011;10517;50.742;4.224;2023-07-20T10:06:54;6.68;;;6.13;;
20711;SDS011;10517;50.742;4.224;2023-07-20T10:09:21;7.32;;;6.78;;
20711;SDS011;10517;50.742;4.224;2023-07-20T10:11:49;7.32;;;6.93;;
20711;SDS011;10517;50.742;4.224;2023-07-20T10:14:16;6.93;;;6.53;;
20711;SDS011;10517;50.742;4.224;2023-07-20T10:16:51;7.35;;;6.82;;
20711;SDS011;10517;50.742;4.224;2023-07-20T10:22:14;7.93;;;7.40;;
20711;SDS011;10517;50.742;4.224;2023-07-20T10:24:44;7.85;;;7.35;;
20711;SDS011;10517;50.742;4.224;2023-07-20T10:27:12;8.15;;;7.55;;
20711;SDS011;10517;50.742;4.224;2023-07-20T10:29:39;7.18;;;6.72;;
20711;SDS011;10517;50.742;4.224;2023-07-20T10:32:06;7.38;;;6.88;;
20711;SDS011;10517;50.742;4.224;2023-07-20T10:34:33;7.65;;;7.00;;
20711;SDS011;10517;50.742;4.224;2023-07-20T10:36:59;7.15;;;6.63;;
20711;SDS011;10517;50.742;4.224;2023-07-20T10:39:25;7.93;;;7.47;;
20711;SDS011;10517;50.742;4.224;2023-07-20T10:44:36;8.38;;;7.75;;
20711;SDS011;10517;50.742;4.224;2023-07-20T10:47:03;7.88;;;7.35;;
20711;SDS011;10517;50.742;4.224;2023-07-20T10:52:25;6.88;;;6.57;;
20711;SDS011;10517;50.742;4.224;2023-07-20T10:54:51;6.97;;;6.25;;
20711;SDS011;10517;50.742;4.224;2023-07-20T10:57:24;8.13;;;6.50;;
20711;SDS011;10517;50.742;4.224;2023-07-20T11:00:06;6.75;;;6.15;;
20711;SDS011;10517;50.742;4.224;2023-07-20T11:02:46;6.35;;;5.95;;
20711;SDS011;10517;50.742;4.224;2023-07-20T11:07:57;6.80;;;6.50;;
20711;SDS011;10517;50.742;4.224;2023-07-20T11:10:22;6.35;;;5.95;;
20711;SDS011;10517;50.742;4.224;2023-07-20T11:18:12;7.28;;;6.78;;
20711;SDS011;10517;50.742;4.224;2023-07-20T11:20:38;7.10;;;6.70;;
20711;SDS011;10517;50.742;4.224;2023-07-20T11:23:03;6.80;;;6.40;;
20711;SDS011;10517;50.742;4.224;2023-07-20T11:25:39;6.85;;;6.53;;
20711;SDS011;10517;50.742;4.224;2023-07-20T11:28:06;7.15;;;6.65;;
20711;SDS011;10517;50.742;4.224;2023-07-20T11:30:34;6.05;;;5.75;;
20711;SDS011;10517;50.742;4.224;2023-07-20T11:32:59;6.57;;;6.18;;
20711;SDS011;10517;50.742;4.224;2023-07-20T11:35:25;7.45;;;6.72;;
20711;SDS011;10517;50.742;4.224;2023-07-20T11:37:51;6.15;;;5.85;;
20711;SDS011;10517;50.742;4.224;2023-07-20T11:40:16;6.53;;;5.93;;
20711;SDS011;10517;50.742;4.224;2023-07-20T11:42:42;6.88;;;6.47;;
20711;SDS011;10517;50.742;4.224;2023-07-20T11:45:09;6.35;;;5.97;;
20711;SDS011;10517;50.742;4.224;2023-07-20T11:47:35;5.45;;;5.15;;
20711;SDS011;10517;50.742;4.224;2023-07-20T11:50:05;5.22;;;5.03;;
20711;SDS011;10517;50.742;4.224;2023-07-20T11:52:31;6.43;;;5.85;;
20711;SDS011;10517;50.742;4.224;2023-07-20T11:54:58;5.10;;;4.78;;
20711;SDS011;10517;50.742;4.224;2023-07-20T11:57:23;5.03;;;4.65;;
20711;SDS011;10517;50.742;4.224;2023-07-20T11:59:56;5.05;;;4.78;;
20711;SDS011;10517;50.742;4.224;2023-07-20T12:02:23;5.05;;;4.60;;
20711;SDS011;10517;50.742;4.224;2023-07-20T12:04:52;4.93;;;4.68;;
20711;SDS011;10517;50.742;4.224;2023-07-20T12:07:19;5.40;;;5.05;;
20711;SDS011;10517;50.742;4.224;2023-07-20T12:10:02;5.22;;;4.68;;
20711;SDS011;10517;50.742;4.224;2023-07-20T12:12:34;5.38;;;5.18;;
20711;SDS011;10517;50.742;4.224;2023-07-20T12:15:14;5.75;;;5.38;;
20711;SDS011;10517;50.742;4.224;2023-07-20T12:17:43;5.78;;;5.43;;
20711;SDS011;10517;50.742;4.224;2023-07-20T12:20:11;5.45;;;5.20;;
20711;SDS011;10517;50.742;4.224;2023-07-20T12:22:40;5.35;;;5.05;;
20711;SDS011;10517;50.742;4.224;2023-07-20T12:25:08;5.65;;;5.25;;
20711;SDS011;10517;50.742;4.224;2023-07-20T12:27:37;5.50;;;5.10;;
20711;SDS011;10517;50.742;4.224;2023-07-20T12:30:03;5.78;;;5.30;;
20711;SDS011;10517;50.742;4.224;2023-07-20T12:32:32;4.55;;;4.35;;
20711;SDS011;10517;50.742;4.224;2023-07-20T12:34:58;6.20;;;4.88;;
20711;SDS011;10517;50.742;4.224;2023-07-20T12:37:25;4.80;;;4.53;;
20711;SDS011;10517;50.742;4.224;2023-07-20T12:39:51;5.03;;;4.82;;
20711;SDS011;10517;50.742;4.224;2023-07-20T12:42:17;5.10;;;4.70;;
20711;SDS011;10517;50.742;4.224;2023-07-20T12:44:43;4.90;;;4.70;;
20711;SDS011;10517;50.742;4.224;2023-07-20T12:47:08;5.18;;;4.88;;
20711;SDS011;10517;50.742;4.224;2023-07-20T12:49:34;4.57;;;4.38;;
20711;SDS011;10517;50.742;4.224;2023-07-20T12:52:00;4.82;;;4.57;;
20711;SDS011;10517;50.742;4.224;2023-07-20T12:54:25;4.45;;;4.25;;
20711;SDS011;10517;50.742;4.224;2023-07-20T12:56:51;5.10;;;4.80;;
20711;SDS011;10517;50.742;4.224;2023-07-20T12:59:16;5.10;;;4.63;;
20711;SDS011;10517;50.742;4.224;2023-07-20T13:01:42;4.70;;;4.35;;
20711;SDS011;10517;50.742;4.224;2023-07-20T13:04:09;4.78;;;4.40;;
20711;SDS011;10517;50.742;4.224;2023-07-20T13:06:35;4.65;;;4.28;;
20711;SDS011;10517;50.742;4.224;2023-07-20T13:09:00;4.78;;;4.57;;
20711;SDS011;10517;50.742;4.224;2023-07-20T13:11:27;5.43;;;4.90;;
20711;SDS011;10517;50.742;4.224;2023-07-20T13:13:52;5.18;;;4.88;;
20711;SDS011;10517;50.742;4.224;2023-07-20T13:16:18;4.90;;;4.70;;
20711;SDS011;10517;50.742;4.224;2023-07-20T13:18:43;5.07;;;4.60;;
20711;SDS011;10517;50.742;4.224;2023-07-20T13:21:09;4.70;;;4.40;;
20711;SDS011;10517;50.742;4.224;2023-07-20T13:23:39;4.18;;;3.90;;
20711;SDS011;10517;50.742;4.224;2023-07-20T13:26:04;4.50;;;4.30;;
20711;SDS011;10517;50.742;4.224;2023-07-20T13:28:30;4.82;;;4.63;;
20711;SDS011;10517;50.742;4.224;2023-07-20T13:30:56;5.05;;;4.80;;
20711;SDS011;10517;50.742;4.224;2023-07-20T13:33:21;5.13;;;4.82;;
20711;SDS011;10517;50.742;4.224;2023-07-20T13:35:47;5.68;;;5.25;;
20711;SDS011;10517;50.742;4.224;2023-07-20T13:38:13;5.07;;;4.78;;
20711;SDS011;10517;50.742;4.224;2023-07-20T13:40:38;5.18;;;4.88;;
20711;SDS011;10517;50.742;4.224;2023-07-20T13:43:04;6.80;;;6.20;;
20711;SDS011;10517;50.742;4.224;2023-07-20T13:45:29;6.20;;;5.88;;
20711;SDS011;10517;50.742;4.224;2023-07-20T13:47:55;5.50;;;5.00;;
20711;SDS011;10517;50.742;4.224;2023-07-20T13:50:20;5.50;;;5.20;;
20711;SDS011;10517;50.742;4.224;2023-07-20T13:52:46;5.95;;;5.53;;
20711;SDS011;10517;50.742;4.224;2023-07-20T13:55:12;5.20;;;5.00;;
20711;SDS011;10517;50.742;4.224;2023-07-20T13:57:38;6.10;;;5.70;;
20711;SDS011;10517;50.742;4.224;2023-07-20T14:00:03;5.13;;;4.90;;
20711;SDS011;10517;50.742;4.224;2023-07-20T14:02:30;5.40;;;5.13;;
20711;SDS011;10517;50.742;4.224;2023-07-20T14:04:55;5.45;;;5.15;;
20711;SDS011;10517;50.742;4.224;2023-07-20T14:07:21;5.80;;;5.50;;
20711;SDS011;10517;50.742;4.224;2023-07-20T14:09:47;5.30;;;5.03;;
20711;SDS011;10517;50.742;4.224;2023-07-20T14:12:12;6.10;;;5.60;;
20711;SDS011;10517;50.742;4.224;2023-07-20T14:14:39;5.95;;;5.50;;
20711;SDS011;10517;50.742;4.224;2023-07-20T14:17:06;6.00;;;5.50;;
20711;SDS011;10517;50.742;4.224;2023-07-20T14:19:32;6.13;;;5.72;;
20711;SDS011;10517;50.742;4.224;2023-07-20T14:21:57;5.35;;;5.00;;
20711;SDS011;10517;50.742;4.224;2023-07-20T14:24:24;5.50;;;5.05;;
20711;SDS011;10517;50.742;4.224;2023-07-20T14:26:51;5.20;;;4.97;;
20711;SDS011;10517;50.742;4.224;2023-07-20T14:29:17;5.20;;;4.90;;
20711;SDS011;10517;50.742;4.224;2023-07-20T14:31:43;5.78;;;5.38;;
20711;SDS011;10517;50.742;4.224;2023-07-20T14:34:09;5.47;;;5.05;;
20711;SDS011;10517;50.742;4.224;2023-07-20T14:36:35;5.80;;;5.47;;
20711;SDS011;10517;50.742;4.224;2023-07-20T14:39:00;5.47;;;5.20;;
20711;SDS011;10517;50.742;4.224;2023-07-20T14:41:26;5.68;;;5.28;;
20711;SDS011;10517;50.742;4.224;2023-07-20T14:43:52;5.47;;;5.05;;
20711;SDS011;10517;50.742;4.224;2023-07-20T14:46:17;5.18;;;4.97;;
20711;SDS011;10517;50.742;4.224;2023-07-20T14:48:43;5.40;;;4.93;;
20711;SDS011;10517;50.742;4.224;2023-07-20T14:51:08;5.78;;;5.20;;
20711;SDS011;10517;50.742;4.224;2023-07-20T14:53:34;5.38;;;5.07;;
20711;SDS011;10517;50.742;4.224;2023-07-20T14:56:00;5.07;;;4.78;;
20711;SDS011;10517;50.742;4.224;2023-07-20T14:58:26;5.30;;;5.00;;
20711;SDS011;10517;50.742;4.224;2023-07-20T15:00:52;5.43;;;5.03;;
20711;SDS011;10517;50.742;4.224;2023-07-20T15:03:18;5.97;;;5.53;;
20711;SDS011;10517;50.742;4.224;2023-07-20T15:05:43;5.32;;;5.03;;
20711;SDS011;10517;50.742;4.224;2023-07-20T15:08:09;5.82;;;5.20;;
20711;SDS011;10517;50.742;4.224;2023-07-20T15:10:34;5.07;;;4.68;;